Thetford Hill, Vermont
Current Conditions -  °F | °C
As of 2:53 AM on Saturday 25 Oct 2014 (Local Time) from KLEB Reporting Station
Clear Clear  
Wind Chill: 36°   Ceiling: Unl
Heat Index: 36°   Visibility: 9mi
Dew Point: 33°   Wind: 0mph
Humidity: 89%   Direction: NA
Pressure: 29.77"   Gusts: NA
Location:  43.8199°N, 72.2264°W
Report Text: KLEB 250653Z AUTO 00000KT 9SM CLR 02/01 A2977 RMK AO2 SLP083 T00220006
Loading
Personal Weather Stations






























Interactive Weather Map
Tropical Storm Tracking
New forecast layout! Learn more

10-Day Weather Forecast

Advertisements
Track Severe Weather on mobile